Time;durP1;ratioP1;P1;durP2;ratioP2;P2;SDS_P1;SDS_P2;PMS_P1;PMS_P2;Temp;Humidity;BMP_temperature;BMP_pressure;BME280_temperature;BME280_humidity;BME280_pressure;Samples;Min_cycle;Max_cycle;Signal;HPM_P1;HPM_P2
2023/01/25 00:01:52;;;;;;;21.07;12.67;;;5.90;99.90;;;;;;5071826;28;20470;-69
2023/01/25 00:04:19;;;;;;;20.60;11.90;;;5.90;99.90;;;;;;5066367;28;20939;-68
2023/01/25 00:06:44;;;;;;;17.53;11.60;;;5.90;99.90;;;;;;5073192;28;20444;-68
2023/01/25 00:09:10;;;;;;;20.07;12.90;;;5.90;99.90;;;;;;5070533;28;20456;-68
2023/01/25 00:11:36;;;;;;;18.07;11.23;;;5.90;99.90;;;;;;5079083;28;20217;-69
2023/01/25 00:14:03;;;;;;;18.67;13.40;;;5.90;99.90;;;;;;5073871;28;20497;-68
2023/01/25 00:16:29;;;;;;;18.23;11.63;;;5.90;99.90;;;;;;5076349;28;20259;-69
2023/01/25 00:18:54;;;;;;;16.40;10.67;;;5.90;99.90;;;;;;5060534;28;20958;-66
2023/01/25 00:21:22;;;;;;;19.80;11.93;;;5.90;99.90;;;;;;5075156;28;20452;-65
2023/01/25 00:23:48;;;;;;;17.97;12.27;;;5.90;99.90;;;;;;5079677;28;20183;-66
2023/01/25 00:26:14;;;;;;;19.13;11.83;;;5.90;99.90;;;;;;5073929;28;20468;-65
2023/01/25 00:28:40;;;;;;;16.17;11.37;;;5.90;99.90;;;;;;5074957;28;20635;-66
2023/01/25 00:31:06;;;;;;;17.40;12.93;;;5.90;99.90;;;;;;5071030;28;20193;-66
2023/01/25 00:33:59;;;;;;;19.50;13.17;;;5.90;99.90;;;;;;5072772;28;20419;-65
2023/01/25 00:36:31;;;;;;;18.13;11.60;;;5.90;99.90;;;;;;5074787;28;20479;-66
2023/01/25 00:38:57;;;;;;;17.77;11.73;;;5.90;99.90;;;;;;5058275;28;20433;-66
2023/01/25 00:41:23;;;;;;;17.30;12.30;;;5.90;99.90;;;;;;5052156;28;20848;-66
2023/01/25 00:43:48;;;;;;;17.77;12.30;;;5.90;99.90;;;;;;5070086;28;20470;-66
2023/01/25 00:46:16;;;;;;;19.43;12.23;;;5.90;99.90;;;;;;5071305;28;20680;-66
2023/01/25 00:48:41;;;;;;;17.03;12.67;;;5.90;99.90;;;;;;5058270;28;20970;-66
2023/01/25 00:51:07;;;;;;;18.97;12.27;;;5.90;99.90;;;;;;5056251;28;20494;-67
2023/01/25 00:53:33;;;;;;;19.43;12.50;;;5.90;99.90;;;;;;5075001;28;20235;-66
2023/01/25 00:55:59;;;;;;;17.30;11.83;;;5.90;99.90;;;;;;5056845;28;20255;-66
2023/01/25 00:58:25;;;;;;;19.73;12.63;;;5.90;99.90;;;;;;5075158;28;20698;-66
2023/01/25 01:00:55;;;;;;;18.57;11.37;;;5.90;99.90;;;;;;5073845;28;20179;-66
2023/01/25 01:03:20;;;;;;;22.30;12.33;;;5.90;99.90;;;;;;5074494;28;20443;-69
2023/01/25 01:05:46;;;;;;;20.70;12.77;;;5.90;99.90;;;;;;5060250;28;20464;-69
2023/01/25 01:08:13;;;;;;;17.43;11.70;;;5.90;99.90;;;;;;5074722;28;20186;-66
2023/01/25 01:10:39;;;;;;;22.70;12.97;;;5.80;99.90;;;;;;5076058;28;20971;-67
2023/01/25 01:13:05;;;;;;;19.37;11.67;;;5.80;99.90;;;;;;5076205;28;20451;-66
2023/01/25 01:15:35;;;;;;;19.77;12.00;;;5.90;99.90;;;;;;5073135;28;20194;-66
2023/01/25 01:18:00;;;;;;;18.90;13.10;;;5.90;99.90;;;;;;5073943;28;20501;-66
2023/01/25 01:20:26;;;;;;;18.67;13.20;;;5.90;99.90;;;;;;5078801;28;20424;-66
2023/01/25 01:22:54;;;;;;;21.00;13.13;;;5.90;99.90;;;;;;5058459;28;20239;-66
2023/01/25 01:25:24;;;;;;;16.93;11.13;;;5.90;99.90;;;;;;5072481;28;20443;-68
2023/01/25 01:27:50;;;;;;;18.80;12.53;;;5.90;99.90;;;;;;5051866;28;20447;-66
2023/01/25 01:30:16;;;;;;;19.43;13.20;;;5.90;99.90;;;;;;5056631;28;20440;-66
2023/01/25 01:32:41;;;;;;;21.37;12.10;;;5.80;99.90;;;;;;5070736;28;20949;-66
2023/01/25 01:35:07;;;;;;;19.00;12.53;;;5.80;99.90;;;;;;5065655;28;20190;-67
2023/01/25 01:37:33;;;;;;;22.10;13.30;;;5.80;99.90;;;;;;5054178;28;20391;-67
2023/01/25 01:39:58;;;;;;;19.03;13.10;;;5.80;99.90;;;;;;5073039;28;20440;-66
2023/01/25 01:42:24;;;;;;;19.67;12.53;;;5.80;99.90;;;;;;5074969;28;20769;-66
2023/01/25 01:44:52;;;;;;;22.67;13.60;;;5.80;99.90;;;;;;5055918;28;20216;-66
2023/01/25 01:47:38;;;;;;;20.27;13.13;;;5.90;99.90;;;;;;5072976;28;20226;-66
2023/01/25 01:50:20;;;;;;;20.00;12.43;;;5.80;99.90;;;;;;5074969;28;20452;-66
2023/01/25 01:52:45;;;;;;;17.27;11.50;;;5.80;99.90;;;;;;5073188;28;20448;-67
2023/01/25 01:55:17;;;;;;;19.07;13.43;;;5.90;99.90;;;;;;5073985;28;20435;-66
2023/01/25 01:57:47;;;;;;;17.57;12.70;;;5.80;99.90;;;;;;5066742;28;20472;-67
2023/01/25 02:00:22;;;;;;;19.70;12.50;;;5.80;99.90;;;;;;5071525;28;20506;-66
2023/01/25 02:02:49;;;;;;;19.00;12.90;;;5.80;99.90;;;;;;5074232;28;20466;-67
2023/01/25 02:05:31;;;;;;;20.83;13.70;;;5.80;99.90;;;;;;5072638;28;20539;-66
2023/01/25 02:07:57;;;;;;;24.20;13.37;;;5.80;99.90;;;;;;5072077;28;20436;-66
2023/01/25 02:10:25;;;;;;;23.20;13.70;;;5.80;99.90;;;;;;5075572;28;20476;-66
2023/01/25 02:12:54;;;;;;;23.30;14.10;;;5.80;99.90;;;;;;5081230;28;20787;-66
2023/01/25 02:15:20;;;;;;;22.47;12.83;;;5.80;99.90;;;;;;5075747;28;20443;-67
2023/01/25 02:17:47;;;;;;;24.03;15.90;;;5.80;99.90;;;;;;5074538;28;20829;-66
2023/01/25 02:20:36;;;;;;;21.03;12.63;;;5.80;99.90;;;;;;5076040;28;20226;-66
2023/01/25 02:23:13;;;;;;;17.87;12.80;;;5.70;99.90;;;;;;5077693;28;20859;-66
2023/01/25 02:25:40;;;;;;;18.77;12.57;;;5.80;99.90;;;;;;5077420;28;20805;-67
2023/01/25 02:28:17;;;;;;;19.63;13.10;;;5.80;99.90;;;;;;5074253;28;20511;-67
2023/01/25 02:30:43;;;;;;;19.43;13.60;;;5.80;99.90;;;;;;5062290;28;20469;-67
2023/01/25 02:33:08;;;;;;;18.97;12.03;;;5.80;99.90;;;;;;5072337;28;20565;-67
2023/01/25 02:35:42;;;;;;;25.83;14.90;;;5.80;99.90;;;;;;5078153;28;20449;-66
2023/01/25 02:38:09;;;;;;;22.77;14.47;;;5.80;99.90;;;;;;5075380;28;20214;-67
2023/01/25 02:40:43;;;;;;;19.10;13.43;;;5.80;99.90;;;;;;5054603;28;20425;-67
2023/01/25 02:43:09;;;;;;;20.27;12.60;;;5.80;99.90;;;;;;5070315;28;20860;-67
2023/01/25 02:45:35;;;;;;;23.07;14.30;;;5.80;99.90;;;;;;5077378;28;20458;-67
2023/01/25 02:48:00;;;;;;;19.20;13.00;;;5.80;99.90;;;;;;5074521;28;20600;-67
2023/01/25 02:50:26;;;;;;;19.20;12.37;;;5.80;99.90;;;;;;5079309;28;20236;-66
2023/01/25 02:52:51;;;;;;;21.70;13.37;;;5.80;99.90;;;;;;5081697;28;20542;-67
2023/01/25 02:55:17;;;;;;;19.90;13.27;;;5.80;99.90;;;;;;5076478;28;20231;-67
2023/01/25 02:57:43;;;;;;;17.50;11.37;;;5.80;99.90;;;;;;5076173;28;20229;-66
2023/01/25 03:00:09;;;;;;;19.50;12.77;;;5.80;99.90;;;;;;5077873;28;20598;-66
2023/01/25 03:02:34;;;;;;;19.67;13.63;;;5.80;99.90;;;;;;5078155;28;20267;-67
2023/01/25 03:05:00;;;;;;;23.80;13.70;;;5.80;99.90;;;;;;5075564;28;20448;-66
2023/01/25 03:07:25;;;;;;;19.93;12.90;;;5.80;99.90;;;;;;5075994;28;20202;-66
2023/01/25 03:09:51;;;;;;;20.20;13.93;;;5.80;99.90;;;;;;5078013;28;20708;-65
2023/01/25 03:12:16;;;;;;;21.07;14.53;;;5.80;99.90;;;;;;5077545;28;20713;-66
2023/01/25 03:14:43;;;;;;;20.90;13.50;;;5.80;99.90;;;;;;5074907;28;20198;-66
2023/01/25 03:17:09;;;;;;;20.97;12.57;;;5.80;99.90;;;;;;5071415;28;20221;-66
2023/01/25 03:19:34;;;;;;;20.20;12.57;;;5.80;99.90;;;;;;5075754;28;20436;-66
2023/01/25 03:22:01;;;;;;;19.30;12.63;;;5.80;99.90;;;;;;5075114;28;20414;-66
2023/01/25 03:24:26;;;;;;;22.30;13.37;;;5.80;99.90;;;;;;5077192;28;20178;-66
2023/01/25 03:27:12;;;;;;;21.60;12.73;;;5.80;99.90;;;;;;5076083;28;20474;-66
2023/01/25 03:29:37;;;;;;;21.43;13.70;;;5.70;99.90;;;;;;5077016;28;20187;-66
2023/01/25 03:32:03;;;;;;;20.83;13.97;;;5.70;99.90;;;;;;5074984;28;20421;-66
2023/01/25 03:34:29;;;;;;;21.37;14.00;;;5.70;99.90;;;;;;5076952;28;20205;-66
2023/01/25 03:36:55;;;;;;;21.50;13.70;;;5.70;99.90;;;;;;5077454;28;20467;-66
2023/01/25 03:39:20;;;;;;;18.23;12.57;;;5.70;99.90;;;;;;5079651;28;20181;-67
2023/01/25 03:41:46;;;;;;;22.30;12.57;;;5.70;99.90;;;;;;5075050;28;20191;-66
2023/01/25 03:44:11;;;;;;;19.77;13.37;;;5.80;99.90;;;;;;5073880;28;20181;-67
2023/01/25 03:46:41;;;;;;;20.47;13.30;;;5.80;99.90;;;;;;5075435;28;20207;-67
2023/01/25 03:49:07;;;;;;;22.30;13.50;;;5.70;99.90;;;;;;5078245;28;20194;-66
2023/01/25 03:51:33;;;;;;;22.37;14.40;;;5.70;99.90;;;;;;5060602;28;20532;-67
2023/01/25 03:53:59;;;;;;;21.20;13.73;;;5.70;99.90;;;;;;5079055;28;20928;-66
2023/01/25 03:56:25;;;;;;;21.97;13.77;;;5.70;99.90;;;;;;5057759;28;20598;-67
2023/01/25 03:58:50;;;;;;;19.73;13.10;;;5.70;99.90;;;;;;5076444;28;20178;-66
2023/01/25 04:01:16;;;;;;;19.80;13.80;;;5.70;99.90;;;;;;5075171;28;20178;-66
2023/01/25 04:03:41;;;;;;;26.80;16.10;;;5.70;99.90;;;;;;5079213;28;20328;-67
2023/01/25 04:06:07;;;;;;;18.43;13.07;;;5.70;99.90;;;;;;5076233;28;20245;-66
2023/01/25 04:08:33;;;;;;;22.97;14.83;;;5.70;99.90;;;;;;5077307;28;20197;-67
2023/01/25 04:11:07;;;;;;;21.37;13.03;;;5.70;99.90;;;;;;5072468;28;20831;-67
2023/01/25 04:13:36;;;;;;;21.50;14.00;;;5.70;99.90;;;;;;5078881;28;20546;-67
2023/01/25 04:16:07;;;;;;;22.27;13.83;;;5.70;99.90;;;;;;5076625;28;20448;-66
2023/01/25 04:18:33;;;;;;;26.40;13.10;;;5.70;99.90;;;;;;5073875;28;20468;-66
2023/01/25 04:20:58;;;;;;;21.57;13.23;;;5.70;99.90;;;;;;5058087;28;20447;-67
2023/01/25 04:23:25;;;;;;;19.57;13.50;;;5.60;99.90;;;;;;5078286;28;20188;-66
2023/01/25 04:25:55;;;;;;;21.53;12.60;;;5.70;99.90;;;;;;5070592;28;20203;-67
2023/01/25 04:28:21;;;;;;;22.80;13.17;;;5.70;99.90;;;;;;5078031;28;20432;-66
2023/01/25 04:30:47;;;;;;;21.17;12.20;;;5.70;99.90;;;;;;5075433;28;20509;-66
2023/01/25 04:33:13;;;;;;;22.83;12.10;;;5.60;99.90;;;;;;5077395;28;20539;-67
2023/01/25 04:35:39;;;;;;;23.57;14.07;;;5.60;99.90;;;;;;5072204;28;20357;-67
2023/01/25 04:38:05;;;;;;;18.83;12.40;;;5.70;99.90;;;;;;5076639;28;20930;-67
2023/01/25 04:40:31;;;;;;;22.33;14.07;;;5.70;99.90;;;;;;5074870;28;20432;-67
2023/01/25 04:42:57;;;;;;;18.93;11.20;;;5.70;99.90;;;;;;5073017;28;20187;-67
2023/01/25 04:45:24;;;;;;;20.60;13.50;;;5.70;99.90;;;;;;5077139;28;20440;-67
2023/01/25 04:47:56;;;;;;;25.37;15.13;;;5.60;99.90;;;;;;5077329;28;21515;-67
2023/01/25 04:50:21;;;;;;;23.10;12.80;;;5.50;99.90;;;;;;5075920;28;20424;-67
2023/01/25 04:52:47;;;;;;;20.93;12.53;;;5.60;99.90;;;;;;5055688;28;20526;-67
2023/01/25 04:55:12;;;;;;;20.73;12.83;;;5.50;99.90;;;;;;5072272;28;20273;-67
2023/01/25 04:57:38;;;;;;;21.17;13.20;;;5.50;99.90;;;;;;5077202;28;20252;-67
2023/01/25 05:00:04;;;;;;;22.03;12.50;;;5.60;99.90;;;;;;5074315;28;20187;-67
2023/01/25 05:02:29;;;;;;;25.53;13.20;;;5.50;99.90;;;;;;5058921;28;20644;-67
2023/01/25 05:04:55;;;;;;;21.60;12.00;;;5.50;99.90;;;;;;5078812;28;20524;-67
2023/01/25 05:07:21;;;;;;;18.10;12.50;;;5.50;99.90;;;;;;5081204;22;20250;-67
2023/01/25 05:09:46;;;;;;;25.63;14.37;;;5.60;99.90;;;;;;5072855;28;20225;-67
2023/01/25 05:12:12;;;;;;;18.03;12.83;;;5.50;99.90;;;;;;5075752;28;20205;-67
2023/01/25 05:14:38;;;;;;;24.23;13.07;;;5.50;99.90;;;;;;5074911;28;20192;-67
2023/01/25 05:17:05;;;;;;;24.00;13.70;;;5.50;99.90;;;;;;5074168;28;20475;-67
2023/01/25 05:19:31;;;;;;;24.63;12.77;;;5.50;99.90;;;;;;5076666;28;20443;-67
2023/01/25 05:21:57;;;;;;;21.67;12.37;;;5.50;99.90;;;;;;5074282;28;20502;-67
2023/01/25 05:24:30;;;;;;;23.73;12.60;;;5.50;99.90;;;;;;5077470;28;21021;-67
2023/01/25 05:26:59;;;;;;;19.53;12.80;;;5.50;99.90;;;;;;5069793;28;20615;-67
2023/01/25 05:29:26;;;;;;;23.40;13.97;;;5.50;99.90;;;;;;5075311;28;20898;-67
2023/01/25 05:31:51;;;;;;;22.70;13.07;;;5.50;99.90;;;;;;5071698;28;20829;-67
2023/01/25 05:34:17;;;;;;;24.40;12.27;;;5.50;99.90;;;;;;5077515;28;20432;-68
2023/01/25 05:36:43;;;;;;;18.63;12.70;;;5.40;99.90;;;;;;5075924;28;20622;-67
2023/01/25 05:39:08;;;;;;;22.30;13.60;;;5.40;99.90;;;;;;5075834;28;20219;-67
2023/01/25 05:41:34;;;;;;;21.07;12.57;;;5.40;99.90;;;;;;5069693;28;20652;-67
2023/01/25 05:44:00;;;;;;;20.30;13.00;;;5.30;99.90;;;;;;5068762;28;20196;-67
2023/01/25 05:46:29;;;;;;;24.10;13.80;;;5.30;99.90;;;;;;5068376;28;20198;-67
2023/01/25 05:48:54;;;;;;;21.27;12.93;;;5.40;99.90;;;;;;5056129;28;20239;-67
2023/01/25 05:51:20;;;;;;;21.47;12.23;;;5.30;99.90;;;;;;5072333;28;21260;-67
2023/01/25 05:53:45;;;;;;;24.10;13.03;;;5.30;99.90;;;;;;5064918;28;20220;-68
2023/01/25 05:56:11;;;;;;;20.60;12.30;;;5.30;99.90;;;;;;5064706;28;20259;-67
2023/01/25 05:58:37;;;;;;;19.80;12.87;;;5.30;99.90;;;;;;5066455;28;20263;-67
2023/01/25 06:01:05;;;;;;;22.77;14.43;;;5.30;99.90;;;;;;5070381;28;20179;-67
2023/01/25 06:03:30;;;;;;;19.80;12.50;;;5.20;99.90;;;;;;5074294;28;20488;-67
2023/01/25 06:05:58;;;;;;;23.30;13.47;;;5.20;99.90;;;;;;5067707;28;20492;-67
2023/01/25 06:08:24;;;;;;;26.70;13.93;;;5.20;99.90;;;;;;5072405;28;20260;-67
2023/01/25 06:10:50;;;;;;;18.90;11.97;;;5.20;99.90;;;;;;5077250;28;21002;-67
2023/01/25 06:13:16;;;;;;;20.03;12.90;;;5.20;99.90;;;;;;5053131;28;20804;-67
2023/01/25 06:15:42;;;;;;;21.20;13.40;;;5.20;99.90;;;;;;5063143;28;20472;-67
2023/01/25 06:18:07;;;;;;;23.13;13.63;;;5.10;99.90;;;;;;5071096;28;20518;-67
2023/01/25 06:20:33;;;;;;;21.30;13.47;;;5.10;99.90;;;;;;5070422;28;20189;-67
2023/01/25 06:22:59;;;;;;;19.83;12.73;;;5.10;99.90;;;;;;5075604;28;20193;-67
2023/01/25 06:25:24;;;;;;;21.13;13.30;;;5.20;99.90;;;;;;5074485;28;20175;-67
2023/01/25 06:27:50;;;;;;;23.40;13.63;;;5.20;99.90;;;;;;5072108;28;20650;-67
2023/01/25 06:30:16;;;;;;;26.43;13.00;;;5.20;99.90;;;;;;5051813;28;20310;-67
2023/01/25 06:32:41;;;;;;;19.30;11.93;;;5.20;99.90;;;;;;5075339;28;20423;-67
2023/01/25 06:35:07;;;;;;;21.00;12.93;;;5.20;99.90;;;;;;5068224;28;20518;-67
2023/01/25 06:37:33;;;;;;;23.73;13.47;;;5.20;99.90;;;;;;5071958;28;20729;-66
2023/01/25 06:39:58;;;;;;;20.40;12.80;;;5.20;99.90;;;;;;5071702;28;20539;-66
2023/01/25 06:42:24;;;;;;;21.53;12.53;;;5.20;99.90;;;;;;5071423;28;20186;-66
2023/01/25 06:44:49;;;;;;;21.30;12.07;;;5.20;99.90;;;;;;5071233;28;20209;-66
2023/01/25 06:47:15;;;;;;;23.83;12.87;;;5.20;99.90;;;;;;5064350;28;20298;-67
2023/01/25 06:49:40;;;;;;;23.90;13.03;;;5.20;99.90;;;;;;5058465;28;20178;-66
2023/01/25 06:52:06;;;;;;;23.10;13.07;;;5.20;99.90;;;;;;5075126;28;20209;-67
2023/01/25 06:54:32;;;;;;;21.37;13.17;;;5.10;99.90;;;;;;5069628;28;20182;-67
2023/01/25 06:56:58;;;;;;;23.37;13.30;;;5.10;99.90;;;;;;5075778;28;20293;-67
2023/01/25 06:59:23;;;;;;;22.33;12.40;;;5.10;99.90;;;;;;5070130;28;20436;-67
2023/01/25 07:01:49;;;;;;;20.43;13.20;;;5.10;99.90;;;;;;5074788;28;20617;-67
2023/01/25 07:04:15;;;;;;;23.10;13.13;;;5.10;99.90;;;;;;5076616;28;20178;-68
2023/01/25 07:06:40;;;;;;;21.80;13.27;;;5.10;99.90;;;;;;5078159;28;20276;-69
2023/01/25 07:09:08;;;;;;;23.03;13.47;;;5.10;99.90;;;;;;5077127;28;20201;-69
2023/01/25 07:11:34;;;;;;;23.27;13.70;;;5.10;99.90;;;;;;5079784;28;20723;-70
2023/01/25 07:14:00;;;;;;;19.97;11.77;;;5.00;99.90;;;;;;5077555;28;20902;-71
2023/01/25 07:16:26;;;;;;;19.13;11.77;;;5.10;99.90;;;;;;5073736;28;20491;-70
2023/01/25 07:18:52;;;;;;;22.60;13.10;;;5.10;99.90;;;;;;5078706;28;20322;-67
2023/01/25 07:21:22;;;;;;;23.80;13.57;;;5.10;99.90;;;;;;5074954;28;20624;-68
2023/01/25 07:23:51;;;;;;;22.77;12.63;;;5.10;99.90;;;;;;5077380;28;20645;-67
2023/01/25 07:26:23;;;;;;;19.30;11.93;;;5.10;99.90;;;;;;5078262;28;20490;-68
2023/01/25 07:28:49;;;;;;;17.50;12.60;;;5.10;99.90;;;;;;5075821;28;21098;-69
2023/01/25 07:31:16;;;;;;;20.23;12.10;;;5.10;99.90;;;;;;5074230;28;20449;-70
2023/01/25 07:33:42;;;;;;;21.17;11.73;;;5.00;99.90;;;;;;5076215;28;20460;-71
2023/01/25 07:36:09;;;;;;;22.07;12.50;;;5.00;99.90;;;;;;5081024;28;20891;-69
2023/01/25 07:38:35;;;;;;;22.07;13.20;;;5.00;99.90;;;;;;5077221;28;21275;-69
2023/01/25 07:41:02;;;;;;;19.03;13.37;;;5.00;99.90;;;;;;5069112;28;20457;-68
2023/01/25 07:43:28;;;;;;;23.47;12.50;;;5.00;99.90;;;;;;5075564;28;20446;-71
2023/01/25 07:45:59;;;;;;;19.17;11.83;;;5.00;99.90;;;;;;5077167;28;20869;-71
2023/01/25 07:48:24;;;;;;;23.63;12.23;;;5.00;99.90;;;;;;5073303;28;20490;-72
2023/01/25 07:51:10;;;;;;;24.03;13.70;;;5.00;99.90;;;;;;5077431;28;20910;-70
2023/01/25 07:53:37;;;;;;;25.40;11.70;;;5.00;99.90;;;;;;5078425;28;20576;-71
2023/01/25 07:56:03;;;;;;;22.47;13.23;;;5.00;99.90;;;;;;5074156;28;20514;-71
2023/01/25 07:58:28;;;;;;;23.70;12.80;;;5.00;99.90;;;;;;5071764;28;20464;-72
2023/01/25 08:00:54;;;;;;;23.83;14.57;;;5.00;99.90;;;;;;5074045;28;20452;-72
2023/01/25 08:03:21;;;;;;;22.20;13.17;;;5.00;99.90;;;;;;5074142;28;20182;-72
2023/01/25 08:05:47;;;;;;;20.50;11.73;;;5.10;99.90;;;;;;5067021;28;20225;-70
2023/01/25 08:08:13;;;;;;;23.13;12.37;;;5.10;99.90;;;;;;5071553;28;20573;-73
2023/01/25 08:10:39;;;;;;;20.50;12.30;;;5.10;99.90;;;;;;5068302;28;21069;-72
2023/01/25 08:13:05;;;;;;;20.97;11.83;;;5.10;99.90;;;;;;5055098;28;20455;-73
2023/01/25 08:15:31;;;;;;;20.30;13.80;;;5.10;99.90;;;;;;5066604;28;20862;-70
2023/01/25 08:17:59;;;;;;;19.97;12.40;;;5.20;99.90;;;;;;5069510;28;20508;-72
2023/01/25 08:20:25;;;;;;;20.93;13.00;;;5.10;99.90;;;;;;5077386;28;20186;-72
2023/01/25 08:22:51;;;;;;;22.17;12.23;;;5.10;99.90;;;;;;5072636;28;20869;-71
2023/01/25 08:25:17;;;;;;;24.40;14.00;;;5.10;99.90;;;;;;5071720;28;20597;-70
2023/01/25 08:27:42;;;;;;;26.80;14.20;;;5.10;99.90;;;;;;5074633;28;20468;-71
2023/01/25 08:30:10;;;;;;;17.67;12.43;;;5.20;99.90;;;;;;5077936;28;20194;-71
2023/01/25 08:32:37;;;;;;;20.77;12.83;;;5.20;99.90;;;;;;5072396;28;20233;-75
2023/01/25 08:35:02;;;;;;;24.50;14.47;;;5.20;99.90;;;;;;5076750;28;20444;-72
2023/01/25 08:37:28;;;;;;;20.57;11.73;;;5.20;99.90;;;;;;5068678;28;20472;-72
2023/01/25 08:39:56;;;;;;;20.53;12.70;;;5.20;99.90;;;;;;5073867;28;20722;-70
2023/01/25 08:42:22;;;;;;;18.97;12.53;;;5.20;99.90;;;;;;5072623;28;20256;-74
2023/01/25 08:44:48;;;;;;;23.73;13.57;;;5.20;99.90;;;;;;5062884;28;20466;-72
2023/01/25 08:47:14;;;;;;;20.47;12.13;;;5.20;99.90;;;;;;5070328;28;20815;-71
2023/01/25 08:49:39;;;;;;;19.40;12.37;;;5.30;99.90;;;;;;5074925;28;20502;-72
2023/01/25 08:52:05;;;;;;;45.67;28.80;;;5.30;99.90;;;;;;5074664;28;20285;-71
2023/01/25 08:54:30;;;;;;;30.77;17.93;;;5.40;99.90;;;;;;5074079;28;20287;-71
2023/01/25 08:56:56;;;;;;;24.13;15.60;;;5.50;99.90;;;;;;5072210;28;20647;-73
2023/01/25 08:59:22;;;;;;;20.10;12.40;;;5.50;99.90;;;;;;5071331;28;20208;-76
2023/01/25 09:01:47;;;;;;;21.80;12.87;;;5.60;99.90;;;;;;5075245;28;20565;-70
2023/01/25 09:04:13;;;;;;;24.23;13.57;;;5.60;99.90;;;;;;5072543;28;20334;-71
2023/01/25 09:06:39;;;;;;;24.77;15.03;;;5.60;99.90;;;;;;5073144;28;20230;-71
2023/01/25 09:09:05;;;;;;;24.77;13.60;;;5.70;99.90;;;;;;5053622;28;20556;-73
2023/01/25 09:11:32;;;;;;;22.07;12.17;;;5.70;99.90;;;;;;5073728;28;20201;-69
2023/01/25 09:13:58;;;;;;;20.53;13.90;;;5.70;99.90;;;;;;5071954;28;20442;-72
2023/01/25 09:16:27;;;;;;;18.67;12.23;;;5.70;99.90;;;;;;5075059;28;20435;-72
2023/01/25 09:18:54;;;;;;;24.20;14.43;;;5.70;99.90;;;;;;5076917;28;20182;-72
2023/01/25 09:21:20;;;;;;;20.07;11.67;;;5.70;99.90;;;;;;5071291;28;20520;-71
2023/01/25 09:23:50;;;;;;;17.00;11.37;;;5.70;99.90;;;;;;5071507;28;20796;-71
2023/01/25 09:26:16;;;;;;;20.80;12.97;;;5.70;99.90;;;;;;5073744;28;20574;-71
2023/01/25 09:28:46;;;;;;;21.20;12.50;;;5.70;99.90;;;;;;5071813;28;20491;-71
2023/01/25 09:31:11;;;;;;;20.70;12.83;;;5.70;99.90;;;;;;5074509;28;20420;-72
2023/01/25 09:33:39;;;;;;;23.17;14.00;;;5.60;99.90;;;;;;5075242;28;20501;-70
2023/01/25 09:36:06;;;;;;;22.93;13.80;;;5.60;99.90;;;;;;5072609;28;20198;-72
2023/01/25 09:38:32;;;;;;;20.17;11.80;;;5.60;99.90;;;;;;5054990;28;20528;-73
2023/01/25 09:41:00;;;;;;;22.47;11.80;;;5.60;99.90;;;;;;5075405;28;20408;-74
2023/01/25 09:43:50;;;;;;;16.87;12.00;;;5.60;99.90;;;;;;5068494;28;20786;-73
2023/01/25 09:46:38;;;;;;;17.77;10.80;;;5.60;99.90;;;;;;5052601;28;20934;-74
2023/01/25 09:49:50;;;;;;;19.30;12.53;;;5.60;99.90;;;;;;5075451;28;20464;-73
2023/01/25 09:52:52;;;;;;;20.03;11.90;;;5.60;99.90;;;;;;5031069;28;20437;-76
2023/01/25 09:55:21;;;;;;;21.97;12.83;;;5.60;99.90;;;;;;5076886;28;20529;-72
2023/01/25 09:57:49;;;;;;;21.97;13.37;;;5.50;99.90;;;;;;5075666;28;20830;-72
2023/01/25 10:00:21;;;;;;;19.70;12.83;;;5.50;99.90;;;;;;5072162;28;20884;-73
2023/01/25 10:03:00;;;;;;;20.30;13.70;;;5.60;99.90;;;;;;5075150;28;20516;-73
2023/01/25 10:05:30;;;;;;;20.77;13.33;;;5.60;99.90;;;;;;5057788;28;20444;-73
2023/01/25 10:08:09;;;;;;;28.50;13.47;;;5.60;99.90;;;;;;5058175;28;21106;-73
2023/01/25 10:10:40;;;;;;;21.37;13.00;;;5.70;99.90;;;;;;5068090;28;20446;-74
2023/01/25 10:13:18;;;;;;;20.50;11.90;;;5.70;99.90;;;;;;5077053;28;20427;-72
2023/01/25 10:15:49;;;;;;;16.23;11.00;;;5.70;99.90;;;;;;5071650;28;20436;-74
2023/01/25 10:18:51;;;;;;;21.90;12.27;;;5.70;99.90;;;;;;5074356;28;20532;-73
2023/01/25 10:21:31;;;;;;;17.80;11.50;;;5.80;99.90;;;;;;5069889;28;20428;-71
2023/01/25 10:24:03;;;;;;;19.83;12.00;;;5.80;99.90;;;;;;5073131;28;20408;-71
2023/01/25 10:26:33;;;;;;;18.83;12.37;;;5.80;99.90;;;;;;5071394;28;20858;-74
2023/01/25 10:29:18;;;;;;;22.60;13.73;;;5.80;99.90;;;;;;5073676;28;20439;-71
2023/01/25 10:31:52;;;;;;;18.70;12.13;;;5.80;99.90;;;;;;5079286;28;20416;-70
2023/01/25 10:34:31;;;;;;;17.40;11.57;;;5.80;99.90;;;;;;5079420;28;20474;-71
2023/01/25 10:37:03;;;;;;;18.67;11.30;;;5.80;99.90;;;;;;5077142;28;20459;-71
2023/01/25 10:39:31;;;;;;;20.03;12.40;;;5.90;99.90;;;;;;5073117;28;20507;-71
2023/01/25 10:42:05;;;;;;;19.40;13.00;;;5.80;99.90;;;;;;5071429;28;20432;-71
2023/01/25 10:44:36;;;;;;;23.13;13.17;;;5.80;99.90;;;;;;5072964;28;20439;-73
2023/01/25 10:47:33;;;;;;;22.20;14.27;;;5.90;99.90;;;;;;5058199;28;20463;-71
2023/01/25 10:49:59;;;;;;;23.77;14.97;;;5.80;99.90;;;;;;5076843;28;20444;-71
2023/01/25 10:52:30;;;;;;;21.33;12.80;;;5.80;99.90;;;;;;5075411;28;20428;-70
2023/01/25 10:55:24;;;;;;;21.10;12.67;;;5.80;99.90;;;;;;5076715;28;20428;-72
2023/01/25 10:57:53;;;;;;;22.50;13.10;;;5.90;99.90;;;;;;5076721;28;20962;-72
2023/01/25 11:00:26;;;;;;;28.43;15.33;;;5.90;99.90;;;;;;5075652;28;20906;-71
2023/01/25 11:02:53;;;;;;;19.63;13.20;;;5.90;99.90;;;;;;5077454;28;20413;-70
2023/01/25 11:05:29;;;;;;;24.30;13.93;;;5.90;99.90;;;;;;5076969;28;21113;-70
2023/01/25 11:07:57;;;;;;;24.00;14.83;;;5.90;99.90;;;;;;5073777;28;20420;-70
2023/01/25 11:10:34;;;;;;;26.40;14.50;;;5.90;99.90;;;;;;5075905;28;20527;-70
2023/01/25 11:13:15;;;;;;;21.07;15.33;;;6.00;99.90;;;;;;5079978;28;20442;-70
2023/01/25 11:16:00;;;;;;;19.53;13.00;;;5.90;99.90;;;;;;5069788;28;20524;-71
2023/01/25 11:18:30;;;;;;;19.37;12.60;;;6.00;99.90;;;;;;5072308;28;20462;-71
2023/01/25 11:21:32;;;;;;;21.53;13.20;;;5.90;99.90;;;;;;5059604;28;20443;-72
2023/01/25 11:24:02;;;;;;;20.93;14.00;;;6.00;99.90;;;;;;5070349;28;20428;-73
2023/01/25 11:26:28;;;;;;;26.30;14.20;;;5.90;99.90;;;;;;5072708;28;20445;-73
2023/01/25 11:29:14;;;;;;;23.00;13.07;;;5.90;99.90;;;;;;5076175;28;20436;-71
2023/01/25 11:31:44;;;;;;;22.87;13.27;;;5.90;99.90;;;;;;5074215;28;20784;-71
2023/01/25 11:34:23;;;;;;;24.03;13.27;;;5.90;99.90;;;;;;5079796;28;20464;-72
2023/01/25 11:37:19;;;;;;;25.50;14.03;;;5.90;99.90;;;;;;5074415;28;20479;-74
2023/01/25 11:39:52;;;;;;;21.17;12.77;;;5.90;99.90;;;;;;5061555;28;20417;-73
2023/01/25 11:42:36;;;;;;;22.10;13.70;;;5.90;99.90;;;;;;5078682;28;20416;-72
2023/01/25 11:45:11;;;;;;;19.93;12.90;;;5.90;99.90;;;;;;5070043;28;20436;-70
2023/01/25 11:47:50;;;;;;;25.83;14.40;;;5.90;99.90;;;;;;5056517;28;20444;-71
2023/01/25 11:50:41;;;;;;;23.53;13.57;;;5.90;99.90;;;;;;5057998;28;20499;-72
2023/01/25 11:53:28;;;;;;;21.73;13.53;;;5.90;99.90;;;;;;5076890;28;20523;-72
2023/01/25 11:56:14;;;;;;;19.23;11.90;;;5.90;99.90;;;;;;5076648;28;20450;-72
2023/01/25 11:59:08;;;;;;;23.60;12.33;;;5.90;99.90;;;;;;5077351;28;20484;-71
2023/01/25 12:01:36;;;;;;;20.37;12.70;;;5.80;99.90;;;;;;5073704;28;20459;-75
2023/01/25 12:04:14;;;;;;;24.03;13.60;;;5.80;99.90;;;;;;5074922;28;20856;-77
2023/01/25 12:07:03;;;;;;;19.03;12.60;;;5.80;99.90;;;;;;5074661;28;20489;-71
2023/01/25 12:09:43;;;;;;;19.10;12.40;;;5.90;99.90;;;;;;5075010;28;20433;-71
2023/01/25 12:12:11;;;;;;;19.93;12.67;;;5.90;99.90;;;;;;5074903;28;20429;-75
2023/01/25 12:14:52;;;;;;;20.20;12.57;;;5.90;99.90;;;;;;5055478;28;20814;-72
2023/01/25 12:17:55;;;;;;;20.07;12.70;;;5.90;99.90;;;;;;5068253;28;20476;-71
2023/01/25 12:20:33;;;;;;;17.33;11.67;;;6.00;99.90;;;;;;5072299;28;20432;-71
2023/01/25 12:23:19;;;;;;;17.03;11.80;;;6.00;99.90;;;;;;5060644;28;20469;-73
2023/01/25 12:25:55;;;;;;;20.93;12.90;;;6.00;99.90;;;;;;5070463;28;20441;-71
2023/01/25 12:28:26;;;;;;;17.57;11.97;;;6.00;99.90;;;;;;5076953;28;20442;-70
2023/01/25 12:31:01;;;;;;;23.80;11.37;;;6.00;99.90;;;;;;5070624;28;20483;-72
2023/01/25 12:33:32;;;;;;;19.10;12.43;;;6.00;99.90;;;;;;5058033;28;20424;-72
2023/01/25 12:36:25;;;;;;;18.57;12.20;;;6.00;99.90;;;;;;5072470;28;20480;-74
2023/01/25 12:39:03;;;;;;;20.83;13.10;;;6.00;99.90;;;;;;5073979;28;20465;-71
2023/01/25 12:41:59;;;;;;;20.10;12.20;;;6.00;99.90;;;;;;5074756;28;20456;-73
2023/01/25 12:44:35;;;;;;;18.77;12.80;;;6.00;99.90;;;;;;5073585;28;20520;-74
2023/01/25 12:47:23;;;;;;;18.30;13.00;;;6.00;99.90;;;;;;5073812;28;20437;-72
2023/01/25 12:50:12;;;;;;;17.43;11.50;;;6.00;99.90;;;;;;5060789;28;20485;-73